sensor_id;sensor_type;location;lat;lon;timestamp;P1;durP1;ratioP1;P2;durP2;ratioP2
8592;SDS011;4334;49.982;8.398;2023-11-19T00:01:29;8.97;;;5.87;;
8592;SDS011;4334;49.982;8.398;2023-11-19T00:03:57;10.20;;;6.63;;
8592;SDS011;4334;49.982;8.398;2023-11-19T00:06:24;8.03;;;5.67;;
8592;SDS011;4334;49.982;8.398;2023-11-19T00:08:52;9.73;;;6.37;;
8592;SDS011;4334;49.982;8.398;2023-11-19T00:11:20;7.80;;;5.43;;
8592;SDS011;4334;49.982;8.398;2023-11-19T00:13:48;8.63;;;5.83;;
8592;SDS011;4334;49.982;8.398;2023-11-19T00:16:15;11.10;;;6.30;;
8592;SDS011;4334;49.982;8.398;2023-11-19T00:18:42;8.60;;;5.40;;
8592;SDS011;4334;49.982;8.398;2023-11-19T00:21:10;8.07;;;5.83;;
8592;SDS011;4334;49.982;8.398;2023-11-19T00:23:37;7.73;;;5.37;;
8592;SDS011;4334;49.982;8.398;2023-11-19T00:26:04;8.77;;;5.57;;
8592;SDS011;4334;49.982;8.398;2023-11-19T00:28:32;7.17;;;5.37;;
8592;SDS011;4334;49.982;8.398;2023-11-19T00:31:00;9.53;;;5.60;;
8592;SDS011;4334;49.982;8.398;2023-11-19T00:33:28;7.83;;;5.60;;
8592;SDS011;4334;49.982;8.398;2023-11-19T00:35:56;8.57;;;5.30;;
8592;SDS011;4334;49.982;8.398;2023-11-19T00:38:23;9.00;;;5.20;;
8592;SDS011;4334;49.982;8.398;2023-11-19T00:40:50;7.23;;;5.20;;
8592;SDS011;4334;49.982;8.398;2023-11-19T00:43:18;6.67;;;5.20;;
8592;SDS011;4334;49.982;8.398;2023-11-19T00:45:47;8.53;;;5.57;;
8592;SDS011;4334;49.982;8.398;2023-11-19T00:48:16;12.10;;;6.73;;
8592;SDS011;4334;49.982;8.398;2023-11-19T00:50:43;10.40;;;7.27;;
8592;SDS011;4334;49.982;8.398;2023-11-19T00:53:11;11.43;;;6.87;;
8592;SDS011;4334;49.982;8.398;2023-11-19T00:55:38;12.83;;;7.27;;
8592;SDS011;4334;49.982;8.398;2023-11-19T00:58:06;14.97;;;7.27;;
8592;SDS011;4334;49.982;8.398;2023-11-19T01:00:33;12.07;;;7.63;;
8592;SDS011;4334;49.982;8.398;2023-11-19T01:03:00;12.30;;;7.23;;
8592;SDS011;4334;49.982;8.398;2023-11-19T01:05:29;8.77;;;6.77;;
8592;SDS011;4334;49.982;8.398;2023-11-19T01:07:55;13.00;;;7.93;;
8592;SDS011;4334;49.982;8.398;2023-11-19T01:10:22;9.70;;;7.27;;
8592;SDS011;4334;49.982;8.398;2023-11-19T01:12:51;10.37;;;7.40;;
8592;SDS011;4334;49.982;8.398;2023-11-19T01:15:18;15.43;;;7.73;;
8592;SDS011;4334;49.982;8.398;2023-11-19T01:17:45;10.30;;;6.93;;
8592;SDS011;4334;49.982;8.398;2023-11-19T01:20:12;11.90;;;6.73;;
8592;SDS011;4334;49.982;8.398;2023-11-19T01:22:41;9.83;;;6.80;;
8592;SDS011;4334;49.982;8.398;2023-11-19T01:25:08;9.87;;;6.50;;
8592;SDS011;4334;49.982;8.398;2023-11-19T01:27:35;11.20;;;7.00;;
8592;SDS011;4334;49.982;8.398;2023-11-19T01:30:04;12.60;;;7.40;;
8592;SDS011;4334;49.982;8.398;2023-11-19T01:32:34;14.27;;;7.07;;
8592;SDS011;4334;49.982;8.398;2023-11-19T01:35:02;10.33;;;7.43;;
8592;SDS011;4334;49.982;8.398;2023-11-19T01:37:31;9.83;;;6.80;;
8592;SDS011;4334;49.982;8.398;2023-11-19T01:40:01;14.53;;;7.90;;
8592;SDS011;4334;49.982;8.398;2023-11-19T01:42:30;12.47;;;7.83;;
8592;SDS011;4334;49.982;8.398;2023-11-19T01:45:03;14.33;;;8.40;;
8592;SDS011;4334;49.982;8.398;2023-11-19T01:47:32;12.30;;;7.80;;
8592;SDS011;4334;49.982;8.398;2023-11-19T01:50:00;17.33;;;9.17;;
8592;SDS011;4334;49.982;8.398;2023-11-19T01:52:31;14.93;;;8.27;;
8592;SDS011;4334;49.982;8.398;2023-11-19T01:55:04;10.73;;;6.80;;
8592;SDS011;4334;49.982;8.398;2023-11-19T01:57:32;12.50;;;6.97;;
8592;SDS011;4334;49.982;8.398;2023-11-19T01:59:59;9.93;;;6.07;;
8592;SDS011;4334;49.982;8.398;2023-11-19T02:02:27;8.00;;;5.87;;
8592;SDS011;4334;49.982;8.398;2023-11-19T02:04:54;9.07;;;6.20;;
8592;SDS011;4334;49.982;8.398;2023-11-19T02:07:22;14.23;;;6.20;;
8592;SDS011;4334;49.982;8.398;2023-11-19T02:09:50;11.40;;;6.40;;
8592;SDS011;4334;49.982;8.398;2023-11-19T02:12:19;8.40;;;6.43;;
8592;SDS011;4334;49.982;8.398;2023-11-19T02:14:46;10.63;;;6.10;;
8592;SDS011;4334;49.982;8.398;2023-11-19T02:17:25;10.37;;;5.60;;
8592;SDS011;4334;49.982;8.398;2023-11-19T02:19:53;9.77;;;5.93;;
8592;SDS011;4334;49.982;8.398;2023-11-19T02:22:20;10.90;;;5.50;;
8592;SDS011;4334;49.982;8.398;2023-11-19T02:24:47;8.00;;;5.70;;
8592;SDS011;4334;49.982;8.398;2023-11-19T02:27:19;8.67;;;6.10;;
8592;SDS011;4334;49.982;8.398;2023-11-19T02:29:53;7.43;;;5.00;;
8592;SDS011;4334;49.982;8.398;2023-11-19T02:32:20;10.27;;;5.57;;
8592;SDS011;4334;49.982;8.398;2023-11-19T02:34:48;6.83;;;5.10;;
8592;SDS011;4334;49.982;8.398;2023-11-19T02:37:15;8.47;;;4.77;;
8592;SDS011;4334;49.982;8.398;2023-11-19T02:39:44;6.77;;;4.23;;
8592;SDS011;4334;49.982;8.398;2023-11-19T02:42:11;8.57;;;5.30;;
8592;SDS011;4334;49.982;8.398;2023-11-19T02:44:38;7.53;;;4.60;;
8592;SDS011;4334;49.982;8.398;2023-11-19T02:47:06;11.80;;;5.67;;
8592;SDS011;4334;49.982;8.398;2023-11-19T02:49:34;8.00;;;5.63;;
8592;SDS011;4334;49.982;8.398;2023-11-19T02:52:02;9.87;;;5.03;;
8592;SDS011;4334;49.982;8.398;2023-11-19T02:54:31;10.30;;;5.47;;
8592;SDS011;4334;49.982;8.398;2023-11-19T02:57:00;7.43;;;4.93;;
8592;SDS011;4334;49.982;8.398;2023-11-19T02:59:28;6.97;;;4.93;;
8592;SDS011;4334;49.982;8.398;2023-11-19T03:02:03;7.40;;;5.00;;
8592;SDS011;4334;49.982;8.398;2023-11-19T03:04:33;7.13;;;4.77;;
8592;SDS011;4334;49.982;8.398;2023-11-19T03:07:02;5.53;;;4.40;;
8592;SDS011;4334;49.982;8.398;2023-11-19T03:09:29;8.67;;;5.07;;
8592;SDS011;4334;49.982;8.398;2023-11-19T03:11:56;8.07;;;4.93;;
8592;SDS011;4334;49.982;8.398;2023-11-19T03:14:23;6.83;;;4.40;;
8592;SDS011;4334;49.982;8.398;2023-11-19T03:16:51;6.67;;;4.53;;
8592;SDS011;4334;49.982;8.398;2023-11-19T03:19:18;10.27;;;4.70;;
8592;SDS011;4334;49.982;8.398;2023-11-19T03:21:46;7.67;;;4.20;;
8592;SDS011;4334;49.982;8.398;2023-11-19T03:24:13;8.57;;;5.03;;
8592;SDS011;4334;49.982;8.398;2023-11-19T03:26:40;7.50;;;4.87;;
8592;SDS011;4334;49.982;8.398;2023-11-19T03:29:08;8.33;;;4.27;;
8592;SDS011;4334;49.982;8.398;2023-11-19T03:31:35;5.27;;;3.87;;
8592;SDS011;4334;49.982;8.398;2023-11-19T03:34:03;5.37;;;4.20;;
8592;SDS011;4334;49.982;8.398;2023-11-19T03:36:33;8.03;;;4.57;;
8592;SDS011;4334;49.982;8.398;2023-11-19T03:39:01;5.00;;;4.10;;
8592;SDS011;4334;49.982;8.398;2023-11-19T03:41:29;6.93;;;4.17;;
8592;SDS011;4334;49.982;8.398;2023-11-19T03:43:56;7.93;;;4.53;;
8592;SDS011;4334;49.982;8.398;2023-11-19T03:46:23;6.33;;;3.80;;
8592;SDS011;4334;49.982;8.398;2023-11-19T03:48:50;5.13;;;3.80;;
8592;SDS011;4334;49.982;8.398;2023-11-19T03:51:17;7.13;;;3.63;;
8592;SDS011;4334;49.982;8.398;2023-11-19T03:53:44;5.70;;;3.70;;
8592;SDS011;4334;49.982;8.398;2023-11-19T03:56:12;4.57;;;3.47;;
8592;SDS011;4334;49.982;8.398;2023-11-19T03:58:39;3.97;;;3.37;;
8592;SDS011;4334;49.982;8.398;2023-11-19T04:01:10;5.00;;;3.70;;
8592;SDS011;4334;49.982;8.398;2023-11-19T04:03:38;5.50;;;3.30;;
8592;SDS011;4334;49.982;8.398;2023-11-19T04:06:06;5.87;;;3.70;;
8592;SDS011;4334;49.982;8.398;2023-11-19T04:08:33;12.17;;;5.73;;
8592;SDS011;4334;49.982;8.398;2023-11-19T04:11:01;4.47;;;3.50;;
8592;SDS011;4334;49.982;8.398;2023-11-19T04:13:29;5.17;;;2.60;;
8592;SDS011;4334;49.982;8.398;2023-11-19T04:15:56;4.07;;;2.70;;
8592;SDS011;4334;49.982;8.398;2023-11-19T04:18:26;6.30;;;3.57;;
8592;SDS011;4334;49.982;8.398;2023-11-19T04:20:54;4.00;;;3.13;;
8592;SDS011;4334;49.982;8.398;2023-11-19T04:23:21;4.87;;;3.00;;
8592;SDS011;4334;49.982;8.398;2023-11-19T04:25:49;3.47;;;2.90;;
8592;SDS011;4334;49.982;8.398;2023-11-19T04:28:16;4.40;;;3.00;;
8592;SDS011;4334;49.982;8.398;2023-11-19T04:30:45;5.47;;;3.17;;
8592;SDS011;4334;49.982;8.398;2023-11-19T04:33:11;3.77;;;3.00;;
8592;SDS011;4334;49.982;8.398;2023-11-19T04:35:38;5.63;;;3.23;;
8592;SDS011;4334;49.982;8.398;2023-11-19T04:38:05;3.43;;;2.63;;
8592;SDS011;4334;49.982;8.398;2023-11-19T04:40:33;4.67;;;2.53;;
8592;SDS011;4334;49.982;8.398;2023-11-19T04:43:00;5.20;;;2.80;;
8592;SDS011;4334;49.982;8.398;2023-11-19T04:45:27;3.63;;;2.70;;
8592;SDS011;4334;49.982;8.398;2023-11-19T04:47:55;5.63;;;2.90;;
8592;SDS011;4334;49.982;8.398;2023-11-19T04:50:22;5.47;;;3.30;;
8592;SDS011;4334;49.982;8.398;2023-11-19T04:52:50;4.10;;;2.80;;
8592;SDS011;4334;49.982;8.398;2023-11-19T04:55:17;3.73;;;2.73;;
8592;SDS011;4334;49.982;8.398;2023-11-19T04:57:44;4.47;;;3.20;;
8592;SDS011;4334;49.982;8.398;2023-11-19T05:00:13;4.23;;;3.20;;
8592;SDS011;4334;49.982;8.398;2023-11-19T05:02:40;3.10;;;2.53;;
8592;SDS011;4334;49.982;8.398;2023-11-19T05:05:08;3.80;;;2.13;;
8592;SDS011;4334;49.982;8.398;2023-11-19T05:07:36;2.97;;;2.30;;
8592;SDS011;4334;49.982;8.398;2023-11-19T05:10:04;2.67;;;2.20;;
8592;SDS011;4334;49.982;8.398;2023-11-19T05:12:32;2.37;;;2.10;;
8592;SDS011;4334;49.982;8.398;2023-11-19T05:14:59;3.60;;;2.20;;
8592;SDS011;4334;49.982;8.398;2023-11-19T05:17:26;2.30;;;2.10;;
8592;SDS011;4334;49.982;8.398;2023-11-19T05:19:53;2.57;;;2.07;;
8592;SDS011;4334;49.982;8.398;2023-11-19T05:22:21;2.63;;;1.97;;
8592;SDS011;4334;49.982;8.398;2023-11-19T05:24:48;2.73;;;2.10;;
8592;SDS011;4334;49.982;8.398;2023-11-19T05:27:15;1.63;;;1.53;;
8592;SDS011;4334;49.982;8.398;2023-11-19T05:29:42;1.90;;;1.70;;
8592;SDS011;4334;49.982;8.398;2023-11-19T05:32:08;2.00;;;1.80;;
8592;SDS011;4334;49.982;8.398;2023-11-19T05:34:36;1.57;;;1.40;;
8592;SDS011;4334;49.982;8.398;2023-11-19T05:37:03;2.07;;;1.37;;
8592;SDS011;4334;49.982;8.398;2023-11-19T05:39:32;1.97;;;1.47;;
8592;SDS011;4334;49.982;8.398;2023-11-19T05:41:59;1.67;;;1.40;;
8592;SDS011;4334;49.982;8.398;2023-11-19T05:44:26;1.13;;;1.03;;
8592;SDS011;4334;49.982;8.398;2023-11-19T05:46:53;1.40;;;1.30;;
8592;SDS011;4334;49.982;8.398;2023-11-19T05:49:20;1.20;;;1.10;;
8592;SDS011;4334;49.982;8.398;2023-11-19T05:51:47;1.63;;;1.30;;
8592;SDS011;4334;49.982;8.398;2023-11-19T05:54:13;2.23;;;1.57;;
8592;SDS011;4334;49.982;8.398;2023-11-19T05:56:46;1.33;;;1.23;;
8592;SDS011;4334;49.982;8.398;2023-11-19T05:59:14;1.27;;;1.17;;
8592;SDS011;4334;49.982;8.398;2023-11-19T06:01:43;1.50;;;1.40;;
8592;SDS011;4334;49.982;8.398;2023-11-19T06:04:10;2.03;;;1.60;;
8592;SDS011;4334;49.982;8.398;2023-11-19T06:06:37;1.77;;;1.30;;
8592;SDS011;4334;49.982;8.398;2023-11-19T06:09:04;1.60;;;1.30;;
8592;SDS011;4334;49.982;8.398;2023-11-19T06:11:32;1.60;;;1.43;;
8592;SDS011;4334;49.982;8.398;2023-11-19T06:14:02;1.37;;;1.27;;
8592;SDS011;4334;49.982;8.398;2023-11-19T06:16:30;4.67;;;1.50;;
8592;SDS011;4334;49.982;8.398;2023-11-19T06:18:57;1.50;;;1.30;;
8592;SDS011;4334;49.982;8.398;2023-11-19T06:21:24;1.50;;;1.40;;
8592;SDS011;4334;49.982;8.398;2023-11-19T06:23:51;1.50;;;1.40;;
8592;SDS011;4334;49.982;8.398;2023-11-19T06:26:18;1.87;;;1.37;;
8592;SDS011;4334;49.982;8.398;2023-11-19T06:28:47;2.20;;;1.70;;
8592;SDS011;4334;49.982;8.398;2023-11-19T06:31:15;3.13;;;2.10;;
8592;SDS011;4334;49.982;8.398;2023-11-19T06:33:42;3.97;;;2.90;;
8592;SDS011;4334;49.982;8.398;2023-11-19T06:36:09;4.60;;;3.17;;
8592;SDS011;4334;49.982;8.398;2023-11-19T06:38:36;2.30;;;2.00;;
8592;SDS011;4334;49.982;8.398;2023-11-19T06:41:07;5.17;;;3.27;;
8592;SDS011;4334;49.982;8.398;2023-11-19T06:43:34;6.37;;;4.43;;
8592;SDS011;4334;49.982;8.398;2023-11-19T06:46:02;12.67;;;6.97;;
8592;SDS011;4334;49.982;8.398;2023-11-19T06:48:32;7.10;;;3.93;;
8592;SDS011;4334;49.982;8.398;2023-11-19T06:50:59;3.63;;;1.90;;
8592;SDS011;4334;49.982;8.398;2023-11-19T06:53:26;1.90;;;1.70;;
8592;SDS011;4334;49.982;8.398;2023-11-19T06:55:54;2.30;;;1.60;;
8592;SDS011;4334;49.982;8.398;2023-11-19T06:58:22;2.80;;;1.67;;
8592;SDS011;4334;49.982;8.398;2023-11-19T07:00:49;2.27;;;1.90;;
8592;SDS011;4334;49.982;8.398;2023-11-19T07:03:16;2.57;;;1.80;;
8592;SDS011;4334;49.982;8.398;2023-11-19T07:05:44;2.27;;;1.60;;
8592;SDS011;4334;49.982;8.398;2023-11-19T07:08:11;2.40;;;1.90;;
8592;SDS011;4334;49.982;8.398;2023-11-19T07:10:38;2.43;;;1.83;;
8592;SDS011;4334;49.982;8.398;2023-11-19T07:13:05;4.00;;;2.20;;
8592;SDS011;4334;49.982;8.398;2023-11-19T07:15:32;3.23;;;2.40;;
8592;SDS011;4334;49.982;8.398;2023-11-19T07:17:59;2.93;;;2.30;;
8592;SDS011;4334;49.982;8.398;2023-11-19T07:20:26;2.90;;;2.00;;
8592;SDS011;4334;49.982;8.398;2023-11-19T07:22:54;2.87;;;2.10;;
8592;SDS011;4334;49.982;8.398;2023-11-19T07:25:22;2.17;;;1.97;;
8592;SDS011;4334;49.982;8.398;2023-11-19T07:27:48;4.63;;;2.30;;
8592;SDS011;4334;49.982;8.398;2023-11-19T07:30:17;2.30;;;1.93;;
8592;SDS011;4334;49.982;8.398;2023-11-19T07:32:44;4.17;;;2.20;;
8592;SDS011;4334;49.982;8.398;2023-11-19T07:35:11;2.43;;;2.23;;
8592;SDS011;4334;49.982;8.398;2023-11-19T07:37:38;2.77;;;2.47;;
8592;SDS011;4334;49.982;8.398;2023-11-19T07:40:07;3.30;;;2.30;;
8592;SDS011;4334;49.982;8.398;2023-11-19T07:42:36;2.23;;;1.90;;
8592;SDS011;4334;49.982;8.398;2023-11-19T07:45:04;2.07;;;1.80;;
8592;SDS011;4334;49.982;8.398;2023-11-19T07:47:32;3.03;;;2.20;;
8592;SDS011;4334;49.982;8.398;2023-11-19T07:49:59;3.00;;;2.10;;
8592;SDS011;4334;49.982;8.398;2023-11-19T07:52:26;3.20;;;2.00;;
8592;SDS011;4334;49.982;8.398;2023-11-19T07:54:54;2.90;;;2.05;;
8592;SDS011;4334;49.982;8.398;2023-11-19T07:57:22;4.43;;;3.20;;
8592;SDS011;4334;49.982;8.398;2023-11-19T07:59:49;4.27;;;3.10;;
8592;SDS011;4334;49.982;8.398;2023-11-19T08:02:16;3.37;;;2.50;;
8592;SDS011;4334;49.982;8.398;2023-11-19T08:04:44;3.03;;;2.60;;
8592;SDS011;4334;49.982;8.398;2023-11-19T08:07:11;2.83;;;2.53;;
8592;SDS011;4334;49.982;8.398;2023-11-19T08:09:37;4.33;;;2.90;;
8592;SDS011;4334;49.982;8.398;2023-11-19T08:12:05;3.40;;;2.53;;
8592;SDS011;4334;49.982;8.398;2023-11-19T08:14:34;3.57;;;2.70;;
8592;SDS011;4334;49.982;8.398;2023-11-19T08:17:02;2.27;;;2.07;;
8592;SDS011;4334;49.982;8.398;2023-11-19T08:19:29;2.10;;;1.90;;
8592;SDS011;4334;49.982;8.398;2023-11-19T08:21:56;2.57;;;2.33;;
8592;SDS011;4334;49.982;8.398;2023-11-19T08:24:23;2.47;;;2.03;;
8592;SDS011;4334;49.982;8.398;2023-11-19T08:26:50;2.10;;;1.90;;
8592;SDS011;4334;49.982;8.398;2023-11-19T08:29:17;2.83;;;1.70;;
8592;SDS011;4334;49.982;8.398;2023-11-19T08:31:45;2.23;;;1.73;;
8592;SDS011;4334;49.982;8.398;2023-11-19T08:34:12;3.27;;;2.97;;
8592;SDS011;4334;49.982;8.398;2023-11-19T08:36:38;3.60;;;3.30;;
8592;SDS011;4334;49.982;8.398;2023-11-19T08:39:05;2.63;;;2.40;;
8592;SDS011;4334;49.982;8.398;2023-11-19T08:41:33;2.40;;;2.10;;
8592;SDS011;4334;49.982;8.398;2023-11-19T08:44:00;2.80;;;2.23;;
8592;SDS011;4334;49.982;8.398;2023-11-19T08:46:27;3.37;;;2.30;;
8592;SDS011;4334;49.982;8.398;2023-11-19T08:48:55;2.73;;;2.30;;
8592;SDS011;4334;49.982;8.398;2023-11-19T08:51:22;2.20;;;2.00;;
8592;SDS011;4334;49.982;8.398;2023-11-19T08:53:50;2.27;;;2.00;;
8592;SDS011;4334;49.982;8.398;2023-11-19T08:56:17;15.77;;;9.33;;
8592;SDS011;4334;49.982;8.398;2023-11-19T08:58:44;6.87;;;4.73;;
8592;SDS011;4334;49.982;8.398;2023-11-19T09:01:11;3.80;;;3.13;;
8592;SDS011;4334;49.982;8.398;2023-11-19T09:03:37;3.17;;;2.70;;
8592;SDS011;4334;49.982;8.398;2023-11-19T09:06:07;3.30;;;2.63;;
8592;SDS011;4334;49.982;8.398;2023-11-19T09:08:34;2.93;;;2.63;;
8592;SDS011;4334;49.982;8.398;2023-11-19T09:11:01;3.73;;;2.10;;
8592;SDS011;4334;49.982;8.398;2023-11-19T09:13:28;2.73;;;1.83;;
8592;SDS011;4334;49.982;8.398;2023-11-19T09:15:55;2.30;;;1.83;;
8592;SDS011;4334;49.982;8.398;2023-11-19T09:18:28;1.70;;;1.60;;
8592;SDS011;4334;49.982;8.398;2023-11-19T09:20:55;3.10;;;1.70;;
8592;SDS011;4334;49.982;8.398;2023-11-19T09:23:23;2.53;;;1.83;;
8592;SDS011;4334;49.982;8.398;2023-11-19T09:25:50;3.87;;;1.80;;
8592;SDS011;4334;49.982;8.398;2023-11-19T09:28:17;2.90;;;1.70;;
8592;SDS011;4334;49.982;8.398;2023-11-19T09:30:44;2.73;;;1.73;;
8592;SDS011;4334;49.982;8.398;2023-11-19T09:33:11;3.93;;;1.57;;
8592;SDS011;4334;49.982;8.398;2023-11-19T09:35:38;2.80;;;1.27;;
8592;SDS011;4334;49.982;8.398;2023-11-19T09:38:05;2.17;;;1.50;;
8592;SDS011;4334;49.982;8.398;2023-11-19T09:40:34;3.57;;;1.40;;
8592;SDS011;4334;49.982;8.398;2023-11-19T09:43:00;4.70;;;1.50;;
8592;SDS011;4334;49.982;8.398;2023-11-19T09:45:27;1.63;;;1.30;;
8592;SDS011;4334;49.982;8.398;2023-11-19T09:47:55;1.83;;;1.30;;
8592;SDS011;4334;49.982;8.398;2023-11-19T09:50:23;2.58;;;1.48;;
8592;SDS011;4334;49.982;8.398;2023-11-19T09:52:50;3.35;;;1.40;;
8592;SDS011;4334;49.982;8.398;2023-11-19T09:55:17;2.38;;;1.38;;
8592;SDS011;4334;49.982;8.398;2023-11-19T09:57:46;4.57;;;1.63;;
8592;SDS011;4334;49.982;8.398;2023-11-19T10:00:17;2.80;;;1.30;;
8592;SDS011;4334;49.982;8.398;2023-11-19T10:02:46;3.00;;;1.20;;
8592;SDS011;4334;49.982;8.398;2023-11-19T10:05:15;3.65;;;1.40;;
8592;SDS011;4334;49.982;8.398;2023-11-19T10:07:43;2.90;;;1.45;;
8592;SDS011;4334;49.982;8.398;2023-11-19T10:10:10;2.92;;;1.33;;
8592;SDS011;4334;49.982;8.398;2023-11-19T10:12:43;3.58;;;1.33;;
8592;SDS011;4334;49.982;8.398;2023-11-19T10:15:13;3.77;;;1.30;;
8592;SDS011;4334;49.982;8.398;2023-11-19T10:17:46;3.65;;;1.17;;
8592;SDS011;4334;49.982;8.398;2023-11-19T10:20:13;4.10;;;1.40;;
8592;SDS011;4334;49.982;8.398;2023-11-19T10:22:40;3.60;;;1.40;;
8592;SDS011;4334;49.982;8.398;2023-11-19T10:25:08;5.20;;;1.30;;
8592;SDS011;4334;49.982;8.398;2023-11-19T10:27:48;7.03;;;1.60;;
8592;SDS011;4334;49.982;8.398;2023-11-19T10:30:18;4.43;;;1.10;;
8592;SDS011;4334;49.982;8.398;2023-11-19T10:32:52;2.63;;;1.20;;
8592;SDS011;4334;49.982;8.398;2023-11-19T10:35:29;3.80;;;1.55;;
8592;SDS011;4334;49.982;8.398;2023-11-19T10:37:56;1.73;;;1.23;;
8592;SDS011;4334;49.982;8.398;2023-11-19T10:40:31;2.10;;;1.05;;
8592;SDS011;4334;49.982;8.398;2023-11-19T10:43:04;3.67;;;1.70;;
8592;SDS011;4334;49.982;8.398;2023-11-19T10:45:34;4.15;;;1.20;;
8592;SDS011;4334;49.982;8.398;2023-11-19T10:48:02;3.70;;;1.47;;
8592;SDS011;4334;49.982;8.398;2023-11-19T10:50:32;3.73;;;1.37;;
8592;SDS011;4334;49.982;8.398;2023-11-19T10:53:00;2.00;;;0.97;;
8592;SDS011;4334;49.982;8.398;2023-11-19T10:55:27;4.47;;;1.50;;
8592;SDS011;4334;49.982;8.398;2023-11-19T10:57:58;4.50;;;1.57;;
8592;SDS011;4334;49.982;8.398;2023-11-19T11:00:25;7.77;;;1.87;;
8592;SDS011;4334;49.982;8.398;2023-11-19T11:02:56;6.53;;;1.60;;
8592;SDS011;4334;49.982;8.398;2023-11-19T11:05:26;4.97;;;1.37;;
8592;SDS011;4334;49.982;8.398;2023-11-19T11:07:55;3.93;;;1.60;;
8592;SDS011;4334;49.982;8.398;2023-11-19T11:10:22;8.57;;;1.70;;
8592;SDS011;4334;49.982;8.398;2023-11-19T11:12:52;2.83;;;1.33;;
8592;SDS011;4334;49.982;8.398;2023-11-19T11:15:23;5.80;;;1.70;;
8592;SDS011;4334;49.982;8.398;2023-11-19T11:17:53;5.87;;;1.53;;
8592;SDS011;4334;49.982;8.398;2023-11-19T11:20:25;4.67;;;1.33;;
8592;SDS011;4334;49.982;8.398;2023-11-19T11:22:55;4.87;;;1.43;;
8592;SDS011;4334;49.982;8.398;2023-11-19T11:25:48;2.73;;;1.40;;
8592;SDS011;4334;49.982;8.398;2023-11-19T11:28:27;4.95;;;1.65;;
8592;SDS011;4334;49.982;8.398;2023-11-19T11:31:04;2.38;;;1.23;;
8592;SDS011;4334;49.982;8.398;2023-11-19T11:33:44;4.65;;;1.40;;
8592;SDS011;4334;49.982;8.398;2023-11-19T11:36:25;2.90;;;1.15;;
8592;SDS011;4334;49.982;8.398;2023-11-19T11:38:53;2.83;;;1.35;;
8592;SDS011;4334;49.982;8.398;2023-11-19T11:41:25;6.93;;;1.55;;
8592;SDS011;4334;49.982;8.398;2023-11-19T11:43:53;3.50;;;1.20;;
8592;SDS011;4334;49.982;8.398;2023-11-19T11:49:28;5.13;;;1.10;;
8592;SDS011;4334;49.982;8.398;2023-11-19T11:51:57;4.97;;;1.60;;
8592;SDS011;4334;49.982;8.398;2023-11-19T11:54:28;2.17;;;1.20;;
8592;SDS011;4334;49.982;8.398;2023-11-19T11:57:02;2.00;;;1.13;;
8592;SDS011;4334;49.982;8.398;2023-11-19T11:59:36;3.67;;;1.42;;
8592;SDS011;4334;49.982;8.398;2023-11-19T12:02:04;5.80;;;1.50;;
8592;SDS011;4334;49.982;8.398;2023-11-19T12:04:35;4.72;;;1.50;;
8592;SDS011;4334;49.982;8.398;2023-11-19T12:07:03;2.47;;;1.20;;
8592;SDS011;4334;49.982;8.398;2023-11-19T12:09:31;2.78;;;1.20;;
8592;SDS011;4334;49.982;8.398;2023-11-19T12:12:06;5.07;;;1.10;;
8592;SDS011;4334;49.982;8.398;2023-11-19T12:17:37;2.67;;;1.13;;
8592;SDS011;4334;49.982;8.398;2023-11-19T12:20:11;4.13;;;0.82;;
8592;SDS011;4334;49.982;8.398;2023-11-19T12:22:39;1.35;;;1.05;;
8592;SDS011;4334;49.982;8.398;2023-11-19T12:25:07;3.75;;;1.05;;
8592;SDS011;4334;49.982;8.398;2023-11-19T12:27:35;5.72;;;1.30;;
8592;SDS011;4334;49.982;8.398;2023-11-19T12:30:02;5.40;;;1.13;;
8592;SDS011;4334;49.982;8.398;2023-11-19T12:32:37;4.05;;;1.23;;
8592;SDS011;4334;49.982;8.398;2023-11-19T12:35:05;2.75;;;1.30;;
8592;SDS011;4334;49.982;8.398;2023-11-19T12:37:39;2.22;;;0.95;;
8592;SDS011;4334;49.982;8.398;2023-11-19T12:40:14;2.50;;;1.15;;
8592;SDS011;4334;49.982;8.398;2023-11-19T12:42:42;3.78;;;1.00;;
8592;SDS011;4334;49.982;8.398;2023-11-19T12:45:09;2.00;;;1.20;;
8592;SDS011;4334;49.982;8.398;2023-11-19T12:47:37;3.33;;;1.25;;
8592;SDS011;4334;49.982;8.398;2023-11-19T12:50:06;5.88;;;1.23;;
8592;SDS011;4334;49.982;8.398;2023-11-19T12:52:34;3.53;;;1.25;;
8592;SDS011;4334;49.982;8.398;2023-11-19T12:55:02;2.25;;;1.00;;
8592;SDS011;4334;49.982;8.398;2023-11-19T12:57:38;9.20;;;1.33;;
8592;SDS011;4334;49.982;8.398;2023-11-19T13:00:06;5.20;;;1.40;;
8592;SDS011;4334;49.982;8.398;2023-11-19T13:02:45;2.80;;;1.42;;
8592;SDS011;4334;49.982;8.398;2023-11-19T13:05:23;2.67;;;0.90;;
8592;SDS011;4334;49.982;8.398;2023-11-19T13:08:03;2.50;;;1.05;;
8592;SDS011;4334;49.982;8.398;2023-11-19T13:10:33;4.03;;;1.13;;
8592;SDS011;4334;49.982;8.398;2023-11-19T13:13:16;2.35;;;1.20;;
8592;SDS011;4334;49.982;8.398;2023-11-19T13:15:43;5.90;;;1.75;;
8592;SDS011;4334;49.982;8.398;2023-11-19T13:18:11;3.83;;;1.38;;
8592;SDS011;4334;49.982;8.398;2023-11-19T13:20:39;4.57;;;1.50;;
8592;SDS011;4334;49.982;8.398;2023-11-19T13:23:06;2.75;;;1.63;;
8592;SDS011;4334;49.982;8.398;2023-11-19T13:25:34;2.60;;;1.05;;
8592;SDS011;4334;49.982;8.398;2023-11-19T13:28:01;2.45;;;1.13;;
8592;SDS011;4334;49.982;8.398;2023-11-19T13:30:28;4.00;;;1.10;;
8592;SDS011;4334;49.982;8.398;2023-11-19T13:32:55;4.17;;;1.70;;
8592;SDS011;4334;49.982;8.398;2023-11-19T13:35:22;4.20;;;1.60;;
8592;SDS011;4334;49.982;8.398;2023-11-19T13:37:49;3.43;;;1.20;;
8592;SDS011;4334;49.982;8.398;2023-11-19T13:40:17;3.37;;;1.13;;
8592;SDS011;4334;49.982;8.398;2023-11-19T13:42:46;3.67;;;1.53;;
8592;SDS011;4334;49.982;8.398;2023-11-19T13:45:13;4.07;;;1.30;;
8592;SDS011;4334;49.982;8.398;2023-11-19T13:47:40;3.03;;;1.43;;
8592;SDS011;4334;49.982;8.398;2023-11-19T13:50:09;5.93;;;1.80;;
8592;SDS011;4334;49.982;8.398;2023-11-19T13:52:37;3.37;;;1.97;;
8592;SDS011;4334;49.982;8.398;2023-11-19T13:55:05;2.93;;;1.30;;
8592;SDS011;4334;49.982;8.398;2023-11-19T13:57:33;5.30;;;1.60;;
8592;SDS011;4334;49.982;8.398;2023-11-19T14:00:02;4.37;;;1.50;;
8592;SDS011;4334;49.982;8.398;2023-11-19T14:02:32;6.20;;;1.57;;
8592;SDS011;4334;49.982;8.398;2023-11-19T14:04:59;2.60;;;1.10;;
8592;SDS011;4334;49.982;8.398;2023-11-19T14:07:26;4.30;;;1.53;;
8592;SDS011;4334;49.982;8.398;2023-11-19T14:09:53;3.13;;;1.20;;
8592;SDS011;4334;49.982;8.398;2023-11-19T14:12:21;4.53;;;1.60;;
8592;SDS011;4334;49.982;8.398;2023-11-19T14:14:48;2.57;;;1.43;;
8592;SDS011;4334;49.982;8.398;2023-11-19T14:17:17;4.97;;;1.77;;
8592;SDS011;4334;49.982;8.398;2023-11-19T14:19:45;5.40;;;1.77;;
8592;SDS011;4334;49.982;8.398;2023-11-19T14:22:12;4.57;;;1.43;;
8592;SDS011;4334;49.982;8.398;2023-11-19T14:24:39;4.50;;;1.57;;
8592;SDS011;4334;49.982;8.398;2023-11-19T14:27:07;8.00;;;1.57;;
8592;SDS011;4334;49.982;8.398;2023-11-19T14:29:34;2.93;;;1.37;;
8592;SDS011;4334;49.982;8.398;2023-11-19T14:32:02;4.57;;;1.17;;
8592;SDS011;4334;49.982;8.398;2023-11-19T14:34:30;4.13;;;1.17;;
8592;SDS011;4334;49.982;8.398;2023-11-19T14:36:58;4.63;;;1.80;;
8592;SDS011;4334;49.982;8.398;2023-11-19T14:39:25;2.93;;;1.57;;
8592;SDS011;4334;49.982;8.398;2023-11-19T14:41:54;5.33;;;1.20;;
8592;SDS011;4334;49.982;8.398;2023-11-19T14:44:23;2.37;;;1.17;;
8592;SDS011;4334;49.982;8.398;2023-11-19T14:46:50;5.13;;;1.60;;
8592;SDS011;4334;49.982;8.398;2023-11-19T14:49:17;6.83;;;2.00;;
8592;SDS011;4334;49.982;8.398;2023-11-19T14:51:50;3.03;;;1.60;;
8592;SDS011;4334;49.982;8.398;2023-11-19T14:54:17;6.20;;;1.43;;
8592;SDS011;4334;49.982;8.398;2023-11-19T14:56:44;3.07;;;1.77;;
8592;SDS011;4334;49.982;8.398;2023-11-19T14:59:11;6.37;;;1.50;;
8592;SDS011;4334;49.982;8.398;2023-11-19T15:01:39;3.80;;;1.53;;
8592;SDS011;4334;49.982;8.398;2023-11-19T15:04:06;8.00;;;1.70;;
8592;SDS011;4334;49.982;8.398;2023-11-19T15:06:33;3.03;;;1.47;;
8592;SDS011;4334;49.982;8.398;2023-11-19T15:09:02;3.97;;;1.37;;
8592;SDS011;4334;49.982;8.398;2023-11-19T15:11:30;6.70;;;1.77;;
8592;SDS011;4334;49.982;8.398;2023-11-19T15:13:58;3.90;;;1.70;;
8592;SDS011;4334;49.982;8.398;2023-11-19T15:16:25;4.70;;;1.63;;
8592;SDS011;4334;49.982;8.398;2023-11-19T15:18:56;3.47;;;1.30;;
8592;SDS011;4334;49.982;8.398;2023-11-19T15:21:24;4.47;;;2.10;;
8592;SDS011;4334;49.982;8.398;2023-11-19T15:23:52;3.23;;;1.23;;
8592;SDS011;4334;49.982;8.398;2023-11-19T15:26:20;2.43;;;1.07;;
8592;SDS011;4334;49.982;8.398;2023-11-19T15:28:47;5.83;;;1.60;;